Tiempo atmosférico en la estación meteorológica de Lliria, València/Valencia (180 m.)



Fecha
DESCASC
Temp. máxima en grados centígrados (hora)
DESCASC
Temp. mínima en grados centígrados (hora)
DESCASC
Temp. media en grados centígrados
DESCASC
Racha de viento máxima en m/sg (hora)
DESCASC
Velocidad máxima media en intervalos de 10 minutos(hora)
DESCASC
Precipitaciones diarias en mm
DESCASC
Precipitaciones de 00:00 a 06:00 en mm
DESCASC
Precipitaciones de 06:00 a 12:00 en mm
DESCASC
Precipitaciones de 12:00 a 18:00 en mm
DESCASC
Precipitaciones de 18:00 a 24:00 en mm
DESCASC
07-01-2021 7.8 (13:00) 3.4 (00:00) 5.6 7.5 (12:20) 4.17 (13:30) 7.6 0 0.4 2.6 4.6
21-01-2021 16.8 (13:50) 6.4 (00:00) 11.6 15.28 (15:50) 8.61 (12:10) 0 0 0 0 0
20-01-2021 14.1 (17:10) 2.3 (00:00) 8.2 13.06 (13:30) 5.83 (13:30) 0 0 0 0 0
19-01-2021 16.8 (15:40) 2.2 (00:00) 9.5 5 (09:00) 3.61 (00:10) 0 0 0 0 0
18-01-2021 16.9 (15:30) 4.5 (00:00) 10.7 5.83 (16:50) 3.06 (08:10) 0 0 0 0 0
17-01-2021 21.5 (14:40) 3.7 (00:00) 12.6 7.5 (12:10) 4.72 (12:00) 0 0 0 0 0
16-01-2021 17 (15:30) 0 (00:00) 8.5 5.83 (02:10) 3.61 (23:50) 0 0 0 0 0
15-01-2021 17.7 (15:30) 0.5 (00:00) 9.1 8.33 (19:40) 4.44 (19:40) 0 0 0 0 0
14-01-2021 17.2 (16:10) 0.8 (04:00) 9 4.72 (10:20) 2.78 (10:20) 0 0 0 0 0
13-01-2021 15.6 (15:50) -2 (-00:0) 6.8 4.17 (20:10) 3.06 (20:10) 0 0 0 0 0
12-01-2021 13.6 (15:10) -0.6 (-00:0) 6.5 8.61 (05:30) 4.72 (05:30) 0 0 0 0 0
11-01-2021 10.7 (15:30) 0 (00:00) 5.3 5.56 (03:30) 3.33 (03:20) 0 0 0 0 0
10-01-2021 9.4 (16:10) 0.6 (05:40) 5 6.67 (00:20) 3.61 (00:20) 0 0 0 0 0
23-12-2020 23.1 (15:00) 5.8 (07:30) 14.5 11.11 (23:20) 5.83 (23:00) 0 0 0 0 0
06-01-2021 11.1 (15:30) -1.5 (-00:0) 4.8 5.28 (15:50) 3.33 (02:10) 0 0 0 0 0
05-01-2021 12.3 (14:40) -3.2 (-00:0) 4.6 5 (00:10) 3.33 (01:30) 0 0 0 0 0
04-01-2021 12 (15:10) 0.9 (00:00) 6.4 10.28 (13:50) 5.83 (13:50) 0 0 0 0 0
03-01-2021 13.3 (14:30) -2.8 (-00:0) 5.3 11.11 (13:50) 6.67 (19:10) 0 0 0 0 0
02-01-2021 10.5 (13:10) 0.2 (00:00) 5.4 11.11 (16:10) 6.67 (16:00) 0 0 0 0 0
01-01-2021 13 (14:20) 2 (00:00) 7.5 11.39 (14:30) 6.39 (14:50) 0 0 0 0 0
31-12-2020 14.7 (15:20) 1.3 (00:00) 8 13.61 (14:10) 8.06 (14:20) 0 0 0 0 0
30-12-2020 14.3 (15:40) 1.3 (00:00) 7.8 12.5 (15:10) 7.22 (14:30) 0 0 0 0 0
29-12-2020 13.1 (14:10) 5.2 (00:00) 9.2 12.78 (13:40) 8.06 (13:40) 0 0 0 0 0
28-12-2020 14.5 (14:40) 5.2 (00:00) 9.8 18.61 (05:40) 11.67 (14:00) 0.4 0 0.4 0 0
27-12-2020 16.9 (15:10) -2.5 (-00:0) 7.2 15.56 (20:10) 9.17 (20:20) 0 0 0 0 0
26-12-2020 14.1 (15:30) 0.1 (00:00) 7.1 7.22 (04:20) 3.89 (12:40) 0 0 0 0 0
24-12-2020 17.7 (14:00) 9 (00:00) 13.4 10 (02:00) 6.11 (02:00) 1 0 0 0 1
25-12-2020 12.4 (13:20) 2.4 (00:00) 7.4 16.11 (22:00) 8.06 (11:50) 0.2 0.2 0 0 0
08-01-2021 5.1 (10:30) 3 (00:00) 4 6.39 (23:59) 3.06 (23:59) 11.8 0.8 1.6 6.8 2.6
09-01-2021 5.4 (15:30) 1.6 (00:00) 3.5 6.11 (17:50) 3.61 (18:00) 12.6 5.6 3.2 2.2 1.6

Gráficas

Temp. máximas Temp. mínimas Temp. medias Precipitaciones Rachas de viento máximas Velocidades máximas media en intervalos de 10 minutos

Datos horarios

Fecha y hora oficial Temperatura (ºC) Velocidad del viento (km/h) Dirección del viento Racha (km/h) Dirección de racha Precipitación (mm) Presión (hPa) Tendencia (hPa) Humedad (%)
2021-01-21 23:00:00 15.3 17 Oeste 39 Oeste 0 -- -- 63
2021-01-21 22:00:00 15 12 Oeste 30 Oeste 0 -- -- 64
2021-01-21 21:00:00 14.8 10 Sudoeste 27 Oeste 0 -- -- 64
2021-01-21 20:00:00 14.8 9 Sudoeste 43 Oeste 0 -- -- 63
2021-01-21 19:00:00 14.9 12 Sudoeste 28 Oeste 0 -- -- 62
2021-01-21 18:00:00 15 12 Oeste 32 Oeste 0 -- -- 61
2021-01-21 17:00:00 15.5 18 Oeste 40 Sudoeste 0 -- -- 60
2021-01-21 16:00:00 16.6 22 Oeste 55 Oeste 0 -- -- 54
2021-01-21 15:00:00 16.6 20 Noroeste 45 Oeste 0 -- -- 52
2021-01-21 14:00:00 16.8 24 Oeste 44 Oeste 0 -- -- 55
2021-01-21 13:00:00 16.5 22 Oeste 50 Oeste 0 -- -- 55
2021-01-21 12:00:00 16.3 30 Oeste 54 Oeste 0 -- -- 55
2021-01-21 11:00:00 15.2 22 Oeste 39 Oeste 0 -- -- 59
2021-01-21 10:00:00 13.9 24 Oeste 41 Noroeste 0 -- -- 62
2021-01-21 09:00:00 12.7 22 Oeste 36 Oeste 0 -- -- 66
2021-01-21 08:00:00 12 22 Oeste 40 Oeste 0 -- -- 68
2021-01-21 07:00:00 11 17 Oeste 27 Oeste 0 -- -- 73
2021-01-21 06:00:00 11.1 9 Oeste 23 Noroeste 0 -- -- 72
2021-01-21 05:00:00 10.9 13 Oeste 30 Oeste 0 -- -- 74
2021-01-21 04:00:00 6.8 3 Oeste 17 Noroeste 0 -- -- 87
2021-01-21 03:00:00 7.5 4 Norte 13 Oeste 0 -- -- 86
2021-01-21 02:00:00 6.9 6 Oeste 13 Oeste 0 -- -- 91
2021-01-21 01:00:00 7.7 4 Oeste 8 Noroeste 0 -- -- 87
2021-01-21 00:00:00 9.3 6 Nordeste 10 Nordeste 0 -- -- 82
2021-01-20 23:00:00 8.5 5 Oeste 9 Noroeste 0 -- -- 86
2021-01-20 22:00:00 8.1 5 Sudeste 7 Sudeste 0 -- -- 85
2021-01-20 21:00:00 8.2 0 Calma 7 Sudeste 0 -- -- 85
2021-01-20 20:00:00 8.1 4 Noroeste 7 Noroeste 0 -- -- 86
2021-01-20 19:00:00 9.9 2 Oeste 24 Oeste 0 -- -- 76
2021-01-20 18:00:00 12.4 15 Oeste 36 Sudoeste 0 -- -- 65
2021-01-20 17:00:00 13.8 12 Oeste 26 Sudoeste 0 -- -- 61
2021-01-20 16:00:00 12.4 11 Oeste 26 Oeste 0 -- -- 64
2021-01-20 15:00:00 11.2 4 Noroeste 26 Oeste 0 -- -- 68
2021-01-20 14:00:00 11.1 16 Oeste 47 Noroeste 0 -- -- 68
2021-01-20 13:00:00 12.7 10 Oeste 30 Oeste 0 -- -- 60
2021-01-20 12:00:00 12.7 15 Oeste 24 Oeste 0 -- -- 57
2021-01-20 11:00:00 11.4 7 Oeste 26 Oeste 0 -- -- 55
2021-01-20 10:00:00 9.1 14 Noroeste 27 Noroeste 0 -- -- 59
2021-01-20 09:00:00 4.4 3 Este 22 Oeste 0 -- -- 74
2021-01-20 08:00:00 3.8 3 Norte 8 Noroeste 0 -- -- 74
2021-01-20 07:00:00 4.4 5 Noroeste 18 Noroeste 0 -- -- 71
2021-01-20 06:00:00 5 10 Noroeste 19 Noroeste 0 -- -- 70
2021-01-20 05:00:00 4.6 8 Noroeste 16 Noroeste 0 -- -- 73
2021-01-20 04:00:00 3.1 4 Oeste 14 Noroeste 0 -- -- 80
2021-01-20 03:00:00 3.4 5 Noroeste 11 Noroeste 0 -- -- 80
2021-01-20 02:00:00 4 9 Noroeste 14 Noroeste 0 -- -- 79
2021-01-20 01:00:00 4.9 8 Noroeste 15 Noroeste 0 -- -- 79
2021-01-20 00:00:00 4.3 6 Noroeste 11 Noroeste 0 -- -- 83
2021-01-19 23:00:00 3.2 6 Noroeste 10 Noroeste 0 -- -- 90
2021-01-19 22:00:00 4.3 6 Noroeste 10 Noroeste 0 -- -- 87
2021-01-19 21:00:00 5.3 6 Noroeste 12 Noroeste 0 -- -- 86
2021-01-19 20:00:00 5.2 6 Noroeste 9 Noroeste 0 -- -- 88
2021-01-19 19:00:00 7.9 3 Nordeste 9 Sudeste 0 -- -- 79
2021-01-19 18:00:00 12.3 6 Sudeste 15 Sudeste 0 -- -- 60
2021-01-19 17:00:00 16.4 5 Sur 12 Sudeste 0 -- -- 47
2021-01-19 16:00:00 16.7 5 Sudeste 11 Este 0 -- -- 44
2021-01-19 15:00:00 16.4 8 Sudeste 15 Sudeste 0 -- -- 41
2021-01-19 14:00:00 16 6 Sur 13 Sur 0 -- -- 42
2021-01-19 13:00:00 15.1 8 Sur 14 Sur 0 -- -- 45
2021-01-19 12:00:00 13.2 5 Oeste 15 Sudoeste 0 -- -- 47
2021-01-19 11:00:00 10.4 0 Calma 9 Noroeste 0 -- -- 57
2021-01-19 10:00:00 7.1 4 Noroeste 17 Noroeste 0 -- -- 66
2021-01-19 09:00:00 3.3 10 Noroeste 18 Noroeste 0 -- -- 82
2021-01-19 08:00:00 2.8 9 Noroeste 15 Noroeste 0 -- -- 83
2021-01-19 07:00:00 3 10 Noroeste 15 Noroeste 0 -- -- 84
2021-01-19 06:00:00 3.3 11 Noroeste 17 Noroeste 0 -- -- 84
2021-01-19 05:00:00 3.2 4 Noroeste 13 Noroeste 0 -- -- 87
2021-01-19 04:00:00 3.9 11 Noroeste 17 Noroeste 0 -- -- 85
2021-01-19 03:00:00 3.7 6 Noroeste 12 Noroeste 0 -- -- 89
2021-01-19 02:00:00 4.6 8 Noroeste 14 Noroeste 0 -- -- 87
2021-01-19 01:00:00 4.7 9 Noroeste 17 Noroeste 0 -- -- 89
2021-01-19 00:00:00 5.1 11 Noroeste 15 Noroeste 0 -- -- 89
2021-01-18 23:00:00 5.6 8 Noroeste 13 Noroeste 0 -- -- 89
2021-01-18 22:00:00 5.3 6 Noroeste 10 Noroeste 0 -- -- 91
2021-01-18 21:00:00 6 3 Noroeste 9 Norte 0 -- -- 88
2021-01-18 20:00:00 8.4 6 Norte 9 Norte 0 -- -- 81
2021-01-18 19:00:00 9.7 3 Nordeste 12 Sudeste 0 -- -- 77
2021-01-18 18:00:00 13.3 8 Sudeste 15 Sudeste 0 -- -- 63
2021-01-18 17:00:00 16.1 8 Sur 21 Sur 0 -- -- 53
2021-01-18 16:00:00 16.7 7 Sudeste 17 Sur 0 -- -- 51
2021-01-18 15:00:00 16.6 7 Sur 17 Sur 0 -- -- 52
2021-01-18 14:00:00 16.2 8 Sur 18 Sur 0 -- -- 54
2021-01-18 13:00:00 15.8 8 Sur 15 Sur 0 -- -- 47
2021-01-18 12:00:00 14.4 6 Oeste 12 Noroeste 0 -- -- 50
2021-01-18 11:00:00 12.7 8 Oeste 14 Noroeste 0 -- -- 55
2021-01-18 10:00:00 9 9 Noroeste 15 Noroeste 0 -- -- 66
2021-01-18 09:00:00 5 4 Noroeste 16 Noroeste 0 -- -- 80
2021-01-18 08:00:00 5.1 9 Noroeste 15 Noroeste 0 -- -- 80
2021-01-18 07:00:00 4.5 7 Noroeste 13 Noroeste 0 -- -- 83
2021-01-18 06:00:00 5 5 Noroeste 15 Noroeste 0 -- -- 80
2021-01-18 05:00:00 6.2 11 Noroeste 15 Noroeste 0 -- -- 76
2021-01-18 04:00:00 6.2 9 Noroeste 16 Oeste 0 -- -- 76
2021-01-18 03:00:00 6.4 5 Noroeste 17 Noroeste 0 -- -- 74
2021-01-18 02:00:00 5.4 6 Noroeste 16 Norte 0 -- -- 78
2021-01-18 01:00:00 7 10 Norte 15 Norte 0 -- -- 69
2021-01-18 00:00:00 5.2 3 Norte 11 Noroeste 0 -- -- 78
2021-01-17 23:00:00 8.9 4 Oeste 21 Noroeste 0 -- -- 60
2021-01-17 22:00:00 10.6 12 Noroeste 20 Noroeste 0 -- -- 53
2021-01-17 21:00:00 10.2 11 Noroeste 17 Noroeste 0 -- -- 55
2021-01-17 20:00:00 9.8 0 Calma 21 Noroeste 0 -- -- 63
2021-01-17 19:00:00 12.4 9 Noroeste 17 Noroeste 0 -- -- 49
2021-01-17 18:00:00 17 3 Sudoeste 17 Oeste 0 -- -- 40
2021-01-17 17:00:00 20.5 8 Oeste 21 Oeste 0 -- -- 31
2021-01-17 16:00:00 21.3 12 Oeste 22 Oeste 0 -- -- 29
2021-01-17 15:00:00 21.5 13 Oeste 24 Oeste 0 -- -- 25
2021-01-17 14:00:00 20.9 13 Oeste 23 Oeste 0 -- -- 24
2021-01-17 13:00:00 19.5 12 Oeste 27 Oeste 0 -- -- 25
2021-01-17 12:00:00 17.1 17 Oeste 25 Oeste 0 -- -- 26
2021-01-17 11:00:00 14.5 13 Noroeste 22 Oeste 0 -- -- 31
2021-01-17 10:00:00 11.8 10 Noroeste 26 Oeste 0 -- -- 34
2021-01-17 09:00:00 8.6 12 Noroeste 23 Noroeste 0 -- -- 41
2021-01-17 08:00:00 7.6 13 Noroeste 20 Oeste 0 -- -- 45
2021-01-17 07:00:00 5.9 4 Noroeste 18 Noroeste 0 -- -- 51
2021-01-17 06:00:00 6.8 12 Noroeste 20 Noroeste 0 -- -- 47
2021-01-17 05:00:00 6.3 3 Noroeste 12 Noroeste 0 -- -- 48
2021-01-17 04:00:00 6.8 8 Noroeste 18 Noroeste 0 -- -- 45
2021-01-17 03:00:00 7 9 Noroeste 25 Noroeste 0 -- -- 45
2021-01-17 02:00:00 5.7 0 Calma 15 Noroeste 0 -- -- 53
2021-01-17 01:00:00 3.7 0 Calma 13 Noroeste 0 -- -- 62
2021-01-17 00:00:00 4.8 10 Noroeste 16 Noroeste 0 -- -- 56
2021-01-16 23:00:00 5.3 3 Noroeste 12 Noroeste 0 -- -- 56
2021-01-16 22:00:00 4.4 5 Norte 8 Nordeste 0 -- -- 63
2021-01-16 21:00:00 7.2 3 Este 19 Noroeste 0 -- -- 55
2021-01-16 20:00:00 7.9 10 Noroeste 17 Noroeste 0 -- -- 53
2021-01-16 19:00:00 8 7 Noroeste 14 Noroeste 0 -- -- 62
2021-01-16 18:00:00 13.8 2 Este 8 Sudeste 0 -- -- 47
2021-01-16 17:00:00 16.5 5 Sur 13 Sur 0 -- -- 32
2021-01-16 16:00:00 16.9 5 Sur 10 Sur 0 -- -- 30
2021-01-16 15:00:00 16.5 4 Sudeste 14 Sur 0 -- -- 29
2021-01-16 14:00:00 15.9 6 Sur 13 Sur 0 -- -- 31
2021-01-16 13:00:00 14.9 4 Sur 12 Oeste 0 -- -- 31
2021-01-16 12:00:00 13 4 Noroeste 14 Oeste 0 -- -- 34
2021-01-16 11:00:00 10.8 8 Oeste 14 Noroeste 0 -- -- 44
2021-01-16 10:00:00 7.3 9 Noroeste 15 Noroeste 0 -- -- 54
2021-01-16 09:00:00 1.2 4 Noroeste 11 Noroeste 0 -- -- 77
2021-01-16 08:00:00 0.1 6 Noroeste 12 Oeste 0 -- -- 80
2021-01-16 07:00:00 1 5 Noroeste 10 Oeste 0 -- -- 76
2021-01-16 06:00:00 1.8 5 Noroeste 14 Oeste 0 -- -- 74
2021-01-16 05:00:00 3 6 Noroeste 15 Noroeste 0 -- -- 67
2021-01-16 04:00:00 3.7 4 Norte 12 Oeste 0 -- -- 65
2021-01-16 03:00:00 4.2 5 Sur 21 Oeste 0 -- -- 66
2021-01-16 02:00:00 5.6 9 Noroeste 19 Noroeste 0 -- -- 60
2021-01-16 01:00:00 3 6 Noroeste 12 Noroeste 0 -- -- 72
2021-01-16 00:00:00 2.9 9 Sudoeste 13 Este 0 -- -- 75
2021-01-15 23:00:00 3.9 7 Sudoeste 15 Sudeste 0 -- -- 71
2021-01-15 22:00:00 5.9 3 Sudeste 13 Sudeste 0 -- -- 64
2021-01-15 21:00:00 8.2 3 Sur 15 Oeste 0 -- -- 55
2021-01-15 20:00:00 10.2 5 Sudeste 30 Noroeste 0 -- -- 46
2021-01-15 19:00:00 10.7 13 Noroeste 19 Noroeste 0 -- -- 44
2021-01-15 18:00:00 13.6 8 Noroeste 14 Noroeste 0 -- -- 39
2021-01-15 17:00:00 15 11 Noroeste 25 Oeste 0 -- -- 37
2021-01-15 16:00:00 17.3 12 Oeste 23 Oeste 0 -- -- 32
2021-01-15 15:00:00 16.8 14 Oeste 24 Oeste 0 -- -- 35
2021-01-15 14:00:00 17.1 11 Oeste 23 Oeste 0 -- -- 36
2021-01-15 13:00:00 17.2 12 Oeste 22 Oeste 0 -- -- 35
2021-01-15 12:00:00 15.7 9 Oeste 19 Oeste 0 -- -- 36
2021-01-15 11:00:00 12.8 10 Noroeste 21 Oeste 0 -- -- 46
2021-01-15 10:00:00 9.1 3 Noroeste 9 Nordeste 0 -- -- 58
2021-01-15 09:00:00 4.5 4 Norte 12 Norte 0 -- -- 72
2021-01-15 08:00:00 1.6 4 Nordeste 14 Norte 0 -- -- 83
2021-01-15 07:00:00 1 6 Noroeste 13 Norte 0 -- -- 84
2021-01-15 06:00:00 1.3 0 Calma 10 Norte 0 -- -- 85
2021-01-15 05:00:00 1.5 3 Oeste 14 Norte 0 -- -- 86
2021-01-15 04:00:00 1.3 3 Oeste 13 Noroeste 0 -- -- 88
2021-01-15 03:00:00 2 5 Noroeste 13 Noroeste 0 -- -- 86
2021-01-15 02:00:00 2.7 4 Noroeste 10 Noroeste 0 -- -- 84
2021-01-15 01:00:00 4.8 8 Noroeste 10 Noroeste 0 -- -- 76
2021-01-15 00:00:00 5.5 3 Noroeste 15 Sudoeste 0 -- -- 71
2021-01-14 23:00:00 4.7 3 Nordeste 13 Nordeste 0 -- -- 69
2021-01-14 22:00:00 5.5 0 Calma 13 Oeste 0 -- -- 69
2021-01-14 21:00:00 4.7 4 Norte 16 Sudoeste 0 -- -- 74
2021-01-14 20:00:00 5.1 2 Noroeste 9 Oeste 0 -- -- 79
2021-01-14 19:00:00 7.5 3 Nordeste 8 Oeste 0 -- -- 72
2021-01-14 18:00:00 11.5 2 Nordeste 14 Sudeste 0 -- -- 61
2021-01-14 17:00:00 16.2 5 Sudeste 11 Sur 0 -- -- 36
2021-01-14 16:00:00 17.1 3 Este 9 Sudeste 0 -- -- 29
2021-01-14 15:00:00 17 4 Sudeste 13 Sudeste 0 -- -- 31
2021-01-14 14:00:00 16.3 2 Este 11 Sur 0 -- -- 29
2021-01-14 13:00:00 15.3 3 Sur 9 Sur 0 -- -- 30
2021-01-14 12:00:00 13 2 Norte 13 Noroeste 0 -- -- 35
2021-01-14 11:00:00 10.1 9 Noroeste 17 Noroeste 0 -- -- 45
2021-01-14 10:00:00 6.7 9 Noroeste 15 Noroeste 0 -- -- 54
2021-01-14 09:00:00 3.2 3 Noroeste 12 Noroeste 0 -- -- 66
2021-01-14 08:00:00 2.7 4 Noroeste 11 Noroeste 0 -- -- 68
2021-01-14 07:00:00 1.5 3 Norte 9 Noroeste 0 -- -- 76
2021-01-14 06:00:00 2.5 4 Norte 8 Noroeste 0 -- -- 72
2021-01-14 05:00:00 2.7 4 Noroeste 12 Noroeste 0 -- -- 72
2021-01-14 04:00:00 0.8 4 Noroeste 8 Noroeste 0 -- -- 83
2021-01-14 03:00:00 2 6 Noroeste 9 Noroeste 0 -- -- 79
2021-01-14 02:00:00 2.4 4 Norte 8 Noroeste 0 -- -- 77
2021-01-14 01:00:00 2.7 4 Noroeste 10 Noroeste 0 -- -- 77
2021-01-14 00:00:00 3.3 5 Noroeste 9 Noroeste 0 -- -- 75
2021-01-13 23:00:00 3.8 8 Noroeste 14 Noroeste 0 -- -- 75
2021-01-13 22:00:00 4 10 Noroeste 14 Noroeste 0 -- -- 76
2021-01-13 21:00:00 4.8 10 Noroeste 15 Noroeste 0 -- -- 72
2021-01-13 20:00:00 4.9 10 Noroeste 14 Noroeste 0 -- -- 75
2021-01-13 19:00:00 7.6 6 Norte 9 Norte 0 -- -- 62
2021-01-13 18:00:00 11.1 4 Este 13 Sudeste 0 -- -- 53
2021-01-13 17:00:00 15 5 Sudeste 11 Este 0 -- -- 37
2021-01-13 16:00:00 15.6 4 Sudoeste 8 Sudoeste 0 -- -- 33
2021-01-13 15:00:00 14.6 3 Norte 6 Este 0 -- -- 35
2021-01-13 14:00:00 14.7 4 Sur 6 Sudoeste 0 -- -- 33
2021-01-13 13:00:00 13.5 2 Sudeste 8 Sudeste 0 -- -- 35
2021-01-13 12:00:00 11.8 2 Sur 5 Sudoeste 0 -- -- 36
2021-01-13 11:00:00 9.6 0 Calma 9 Noroeste 0 -- -- 46
2021-01-13 10:00:00 5.2 6 Noroeste 12 Noroeste 0 -- -- 59
2021-01-13 09:00:00 0.7 3 Norte 12 Noroeste 0 -- -- 72
2021-01-13 08:00:00 -0.3 8 Noroeste 12 Noroeste 0 -- -- 76
2021-01-13 07:00:00 -0.7 5 Norte 9 Norte 0 -- -- 77
2021-01-13 06:00:00 -1.8 2 Norte 5 Norte 0 -- -- 85
2021-01-13 05:00:00 -1 0 Calma 11 Noroeste 0 -- -- 83
2021-01-13 04:00:00 -1.7 4 Noroeste 8 Noroeste 0 -- -- 87
2021-01-13 03:00:00 -0.1 4 Norte 10 Noroeste 0 -- -- 79
2021-01-13 02:00:00 -1 4 Noroeste 8 Noroeste 0 -- -- 86
2021-01-13 01:00:00 -1.5 2 Noroeste 6 Oeste 0 -- -- 88
2021-01-13 00:00:00 -0.4 3 Norte 9 Noroeste 0 -- -- 84
2021-01-12 23:00:00 0.3 5 Nordeste 9 Noroeste 0 -- -- 82
2021-01-12 22:00:00 0.8 3 Este 13 Noroeste 0 -- -- 81
2021-01-12 21:00:00 1.8 10 Noroeste 13 Noroeste 0 -- -- 80
2021-01-12 20:00:00 2.5 8 Noroeste 12 Noroeste 0 -- -- 79
2021-01-12 19:00:00 3.6 0 Calma 5 Nordeste 0 -- -- 76
2021-01-12 18:00:00 9 4 Sudoeste 14 Oeste 0 -- -- 55
2021-01-12 17:00:00 12.3 6 Oeste 17 Oeste 0 -- -- 41
2021-01-12 16:00:00 12.9 12 Oeste 18 Oeste 0 -- -- 37
2021-01-12 15:00:00 13.5 6 Oeste 17 Sur 0 -- -- 31
2021-01-12 14:00:00 11.9 4 Norte 19 Oeste 0 -- -- 27
2021-01-12 13:00:00 11.4 5 Oeste 16 Oeste 0 -- -- 28
2021-01-12 12:00:00 9.3 9 Noroeste 20 Oeste 0 -- -- 32
2021-01-12 11:00:00 6.5 12 Noroeste 18 Oeste 0 -- -- 39
2021-01-12 10:00:00 3.5 9 Noroeste 24 Noroeste 0 -- -- 46
2021-01-12 09:00:00 1.3 13 Noroeste 26 Oeste 0 -- -- 51
2021-01-12 08:00:00 0.5 12 Noroeste 25 Noroeste 0 -- -- 57
2021-01-12 07:00:00 0.3 9 Noroeste 23 Noroeste 0 -- -- 57
2021-01-12 06:00:00 0.8 13 Noroeste 31 Noroeste 0 -- -- 56
2021-01-12 05:00:00 0.7 9 Noroeste 19 Noroeste 0 -- -- 61
2021-01-12 04:00:00 0.5 12 Noroeste 19 Noroeste 0 -- -- 63
2021-01-12 03:00:00 0.3 10 Noroeste 18 Noroeste 0 -- -- 67
2021-01-12 02:00:00 0.8 11 Noroeste 17 Noroeste 0 -- -- 67
2021-01-12 01:00:00 0.3 9 Noroeste 15 Noroeste 0 -- -- 72
2021-01-12 00:00:00 0 10 Noroeste 13 Noroeste 0 -- -- 79
2021-01-11 23:00:00 0.5 9 Noroeste 13 Noroeste 0 -- -- 79
2021-01-11 22:00:00 0.9 9 Noroeste 13 Noroeste 0 -- -- 78
2021-01-11 21:00:00 1.3 2 Noroeste 11 Noroeste 0 -- -- 79
2021-01-11 20:00:00 2.9 9 Noroeste 15 Noroeste 0 -- -- 69
2021-01-11 19:00:00 4.7 4 Noroeste 17 Noroeste 0 -- -- 62
2021-01-11 18:00:00 7.2 6 Noroeste 12 Noroeste 0 -- -- 53
2021-01-11 17:00:00 10.2 3 Este 6 Este 0 -- -- 50
2021-01-11 16:00:00 10.7 3 Oeste 11 Sudeste 0 -- -- 48
2021-01-11 15:00:00 10.5 4 Sudeste 13 Este 0 -- -- 50
2021-01-11 14:00:00 10 6 Sudeste 16 Sudeste 0 -- -- 51
2021-01-11 13:00:00 9.5 6 Sudeste 12 Sur 0 -- -- 53
2021-01-11 12:00:00 8.2 4 Sudeste 8 Sudeste 0 -- -- 57
2021-01-11 11:00:00 5.8 5 Oeste 10 Noroeste 0 -- -- 63
2021-01-11 10:00:00 3.4 3 Noroeste 14 Noroeste 0 -- -- 73
2021-01-11 09:00:00 1.8 7 Noroeste 14 Noroeste 0 -- -- 78
2021-01-11 08:00:00 0.7 8 Noroeste 13 Noroeste 0 -- -- 82
2021-01-11 07:00:00 1.4 6 Noroeste 16 Noroeste 0 -- -- 79
2021-01-11 06:00:00 1.8 6 Noroeste 17 Oeste 0 -- -- 78
2021-01-11 05:00:00 1.8 5 Noroeste 15 Oeste 0 -- -- 81
2021-01-11 04:00:00 2.6 7 Noroeste 20 Noroeste 0 -- -- 82
2021-01-11 03:00:00 3.9 10 Noroeste 15 Noroeste 0 -- -- 77
2021-01-11 02:00:00 3.9 8 Noroeste 14 Noroeste 0 -- -- 80
2021-01-11 01:00:00 3.2 6 Noroeste 14 Noroeste 0 -- -- 87
2021-01-11 00:00:00 2 6 Noroeste 12 Noroeste 0 -- -- 92
2021-01-10 23:00:00 2 9 Noroeste 13 Noroeste 0 -- -- 92
2021-01-10 22:00:00 2.7 3 Noroeste 10 Noroeste 0 -- -- 91
2021-01-10 21:00:00 4.8 8 Oeste 13 Oeste 0 -- -- 82
2021-01-10 20:00:00 5.8 0 Calma 4 Noroeste 0 -- -- 87
2021-01-10 19:00:00 6.6 2 Sur 9 Sur 0 -- -- 81
2021-01-10 18:00:00 7 5 Noroeste 8 Oeste 0 -- -- 76
2021-01-10 17:00:00 8.2 4 Oeste 13 Oeste 0 -- -- 69
2021-01-10 16:00:00 9.1 5 Oeste 13 Noroeste 0 -- -- 64
2021-01-10 15:00:00 7.9 6 Noroeste 16 Oeste 0 -- -- 69
2021-01-10 14:00:00 7.8 7 Oeste 15 Oeste 0 -- -- 68
2021-01-10 13:00:00 7.4 8 Oeste 12 Oeste 0 -- -- 69
2021-01-10 12:00:00 5.7 0 Calma 8 Noroeste 0 -- -- 77
2021-01-10 11:00:00 4.2 0 Calma 11 Noroeste 0 -- -- 87
2021-01-10 10:00:00 2.9 7 Noroeste 15 Oeste 0 -- -- 85
2021-01-10 09:00:00 1.2 7 Noroeste 16 Noroeste 0 -- -- 87
2021-01-10 08:00:00 1.4 4 Sudoeste 12 Noroeste 0 -- -- 88
2021-01-10 07:00:00 1.2 7 Noroeste 18 Noroeste 0 -- -- 89
2021-01-10 06:00:00 0.6 9 Noroeste 17 Noroeste 0 -- -- 90
2021-01-10 05:00:00 1.1 10 Noroeste 21 Noroeste 0 -- -- 88
2021-01-10 04:00:00 1.1 10 Noroeste 20 Noroeste 0 -- -- 89
2021-01-10 03:00:00 1.4 10 Noroeste 21 Noroeste 0 -- -- 89
2021-01-10 02:00:00 0.7 4 Noroeste 16 Noroeste 0 -- -- 92
2021-01-10 01:00:00 1.8 11 Noroeste 24 Oeste 0 -- -- 91
2021-01-10 00:00:00 2.2 7 Noroeste 16 Oeste 0 -- -- 91
2021-01-09 23:00:00 1.9 11 Noroeste 15 Noroeste 0 -- -- 95
2021-01-09 22:00:00 2 8 Noroeste 14 Noroeste 0.2 -- -- 94
2021-01-09 21:00:00 3.1 6 Noroeste 14 Noroeste 0 -- -- 93
2021-01-09 20:00:00 4.5 6 Noroeste 14 Noroeste 0.6 -- -- 94
2021-01-09 19:00:00 4.4 8 Noroeste 22 Oeste 0.8 -- -- 94
2021-01-09 18:00:00 4.3 13 Noroeste 22 Noroeste 0.6 -- -- 91
2021-01-09 17:00:00 5 7 Noroeste 14 Oeste 0 -- -- 93
2021-01-09 16:00:00 5.2 6 Oeste 13 Oeste 0 -- -- 92
2021-01-09 15:00:00 5.1 5 Noroeste 10 Noroeste 0.4 -- -- 94
2021-01-09 14:00:00 4.9 6 Noroeste 13 Oeste 0.8 -- -- 94
2021-01-09 13:00:00 4.9 4 Oeste 6 Sudoeste 0.4 -- -- 94
2021-01-09 12:00:00 4.2 4 Noroeste 10 Sudoeste 1 -- -- 94
2021-01-09 11:00:00 4 4 Oeste 9 Sudoeste 0.2 -- -- 94
2021-01-09 10:00:00 3.5 0 Calma 10 Oeste 0.2 -- -- 95
2021-01-09 09:00:00 3.3 4 Sudoeste 9 Sudoeste 1 -- -- 95
2021-01-09 08:00:00 3.3 4 Oeste 6 Oeste 0.4 -- -- 95
2021-01-09 07:00:00 3.2 3 Oeste 6 Oeste 0.4 -- -- 95
2021-01-09 06:00:00 3.1 3 Sudoeste 6 Sudoeste 0.2 -- -- 94
2021-01-09 05:00:00 3.3 2 Oeste 8 Sudoeste 0.8 -- -- 93
2021-01-09 04:00:00 3.6 2 Noroeste 9 Sudeste 2.6 -- -- 92
2021-01-09 03:00:00 4 3 Sudeste 21 Este 1.6 -- -- 90
2021-01-09 02:00:00 4.2 5 Este 12 Este 0.4 -- -- 88
2021-01-09 01:00:00 4.2 0 Calma 18 Nordeste 0 -- -- 89
2021-01-09 00:00:00 4.4 11 Nordeste 23 Nordeste 0.4 -- -- 83
2021-01-08 23:00:00 4.2 7 Nordeste 19 Este 1 -- -- 86
2021-01-08 22:00:00 4.1 0 Calma 6 Nordeste 0.2 -- -- 92
2021-01-08 21:00:00 4.1 0 Calma 9 Nordeste 0 -- -- 92
2021-01-08 20:00:00 4.2 2 Noroeste 5 Este 0.2 -- -- 94
2021-01-08 19:00:00 4.6 0 Calma 3 Sudeste 0.8 -- -- 94
2021-01-08 18:00:00 4.9 2 Sudeste 11 Nordeste 0.4 -- -- 92
2021-01-08 17:00:00 4.9 4 Nordeste 9 Este 1 -- -- 89
2021-01-08 16:00:00 4.9 3 Nordeste 6 Nordeste 1.2 -- -- 89
2021-01-08 15:00:00 5 0 Calma 5 Nordeste 1.6 -- -- 88
2021-01-08 14:00:00 4.8 0 Calma 6 Norte 1.4 -- -- 88
2021-01-08 13:00:00 4.6 4 Nordeste 10 Este 1.2 -- -- 87
2021-01-08 12:00:00 4.6 2 Este 17 Norte 1.2 -- -- 87
2021-01-08 11:00:00 4.9 2 Nordeste 15 Nordeste 0.2 -- -- 82
2021-01-08 10:00:00 4.7 6 Nordeste 10 Nordeste 0 -- -- 83
2021-01-08 09:00:00 3.5 4 Noroeste 6 Oeste 0.2 -- -- 95
2021-01-08 08:00:00 3.4 5 Noroeste 8 Noroeste 0 -- -- 94
2021-01-08 07:00:00 3.5 0 Calma 6 Noroeste 0 -- -- 92
2021-01-08 06:00:00 4 3 Noroeste 10 Norte 0 -- -- 88
2021-01-08 05:00:00 3.6 6 Noroeste 12 Noroeste 0 -- -- 93
2021-01-08 04:00:00 3.4 8 Noroeste 15 Noroeste 0.2 -- -- 95
2021-01-08 03:00:00 3 5 Noroeste 9 Noroeste 0 -- -- 95
2021-01-08 02:00:00 3.2 0 Calma 4 Noroeste 0.2 -- -- 94
2021-01-08 01:00:00 3.3 0 Calma 4 Oeste 0.4 -- -- 94
2021-01-08 00:00:00 3.4 0 Calma 5 Oeste 0.4 -- -- 94
2021-01-07 23:00:00 3.6 0 Calma 2 Sur 0.8 -- -- 94
2021-01-07 22:00:00 3.6 0 Calma 3 Noroeste 0.8 -- -- 94
2021-01-07 21:00:00 3.8 0 Calma 4 Sudoeste 0.8 -- -- 94
2021-01-07 20:00:00 3.7 2 Oeste 8 Noroeste 0.8 -- -- 93
2021-01-07 19:00:00 3.7 4 Oeste 14 Oeste 1 -- -- 92
2021-01-07 18:00:00 4 6 Oeste 15 Oeste 0.8 -- -- 91
2021-01-07 17:00:00 4.5 7 Oeste 14 Norte 1 -- -- 88
2021-01-07 16:00:00 5.3 8 Nordeste 17 Este 0.8 -- -- 79
2021-01-07 15:00:00 6 9 Nordeste 22 Norte 0 -- -- 76
2021-01-07 14:00:00 6.8 14 Norte 24 Norte 0 -- -- 63
2021-01-07 13:00:00 7.8 13 Nordeste 27 Norte 0 -- -- 57
2021-01-07 12:00:00 7.3 5 Norte 14 Nordeste 0 -- -- 63
2021-01-07 11:00:00 6.3 2 Sudoeste 6 Nordeste 0 -- -- 86
2021-01-07 10:00:00 5.2 3 Noroeste 7 Noroeste 0 -- -- 91
2021-01-07 09:00:00 4.4 4 Noroeste 7 Noroeste 0 -- -- 91
2021-01-07 08:00:00 4.9 5 Noroeste 16 Norte 0.4 -- -- 87
2021-01-07 07:00:00 4.7 0 Calma 8 Norte 0 -- -- 84
2021-01-07 06:00:00 4.8 5 Norte 11 Nordeste 0 -- -- 82
2021-01-07 05:00:00 4.6 4 Norte 12 Norte 0 -- -- 84
2021-01-07 04:00:00 4.3 4 Noroeste 14 Nordeste 0 -- -- 89
2021-01-07 03:00:00 4.2 4 Oeste 10 Oeste 0 -- -- 87
2021-01-07 02:00:00 5.7 5 Norte 8 Norte 0 -- -- 75
2021-01-07 01:00:00 4.7 3 Norte 9 Norte 0 -- -- 78
2021-01-07 00:00:00 5.1 6 Norte 8 Norte 0 -- -- 75
2021-01-06 23:00:00 3.4 2 Noroeste 9 Noroeste 0 -- -- 78
2021-01-06 22:00:00 2.4 6 Noroeste 9 Noroeste 0 -- -- 82
2021-01-06 21:00:00 2 5 Noroeste 10 Noroeste 0 -- -- 81
2021-01-06 20:00:00 2.6 4 Norte 9 Noroeste 0 -- -- 79
2021-01-06 19:00:00 4.5 3 Norte 7 Este 0 -- -- 74
2021-01-06 18:00:00 6.6 5 Este 12 Sudeste 0 -- -- 65
2021-01-06 17:00:00 8.9 8 Este 17 Sudeste 0 -- -- 52
2021-01-06 16:00:00 10.8 7 Sudeste 19 Este 0 -- -- 38
2021-01-06 15:00:00 10.5 9 Sudeste 17 Este 0 -- -- 38
2021-01-06 14:00:00 9.9 8 Sudeste 15 Sudeste 0 -- -- 39
2021-01-06 13:00:00 9.8 8 Sur 14 Sur 0 -- -- 39
2021-01-06 12:00:00 9.6 4 Oeste 10 Oeste 0 -- -- 40
2021-01-06 11:00:00 6.5 6 Oeste 13 Oeste 0 -- -- 47
2021-01-06 10:00:00 2.9 8 Oeste 14 Noroeste 0 -- -- 57
2021-01-06 09:00:00 -0.8 5 Noroeste 15 Noroeste 0 -- -- 71
2021-01-06 08:00:00 -1.5 8 Noroeste 14 Noroeste 0 -- -- 73
2021-01-06 07:00:00 -1.1 9 Noroeste 15 Noroeste 0 -- -- 72
2021-01-06 06:00:00 -1.3 8 Noroeste 13 Noroeste 0 -- -- 75
2021-01-06 05:00:00 -1.4 7 Noroeste 10 Noroeste 0 -- -- 75
2021-01-06 04:00:00 -0.9 6 Noroeste 15 Noroeste 0 -- -- 73
2021-01-06 03:00:00 -0.8 10 Noroeste 16 Noroeste 0 -- -- 72
2021-01-06 02:00:00 -0.4 10 Noroeste 15 Noroeste 0 -- -- 70
2021-01-06 01:00:00 0.3 7 Noroeste 15 Noroeste 0 -- -- 66
2021-01-06 00:00:00 0.9 10 Noroeste 15 Noroeste 0 -- -- 68
2021-01-05 23:00:00 0.6 6 Noroeste 17 Noroeste 0 -- -- 70
2021-01-05 22:00:00 1.4 5 Noroeste 12 Noroeste 0 -- -- 67
2021-01-05 21:00:00 1.9 8 Noroeste 13 Noroeste 0 -- -- 66
2021-01-05 20:00:00 3.7 7 Noroeste 13 Noroeste 0 -- -- 64
2021-01-05 19:00:00 4.6 6 Noroeste 12 Norte 0 -- -- 55
2021-01-05 18:00:00 7.6 4 Noroeste 8 Noroeste 0 -- -- 49
2021-01-05 17:00:00 11.8 3 Sudoeste 10 Sudoeste 0 -- -- 34
2021-01-05 16:00:00 11.9 4 Sudeste 11 Sudeste 0 -- -- 31
2021-01-05 15:00:00 12 5 Sur 10 Sudoeste 0 -- -- 29
2021-01-05 14:00:00 11.1 3 Norte 10 Sudoeste 0 -- -- 29
2021-01-05 13:00:00 10.7 3 Sur 13 Sur 0 -- -- 33
2021-01-05 12:00:00 9.7 5 Sudoeste 15 Sudoeste 0 -- -- 36
2021-01-05 11:00:00 7.4 2 Noroeste 8 Noroeste 0 -- -- 44
2021-01-05 10:00:00 3.7 0 Calma 6 Noroeste 0 -- -- 59
2021-01-05 09:00:00 -1.5 4 Noroeste 7 Noroeste 0 -- -- 73
2021-01-05 08:00:00 -1.2 4 Norte 12 Noroeste 0 -- -- 70
2021-01-05 07:00:00 -1.9 4 Norte 11 Norte 0 -- -- 75
2021-01-05 06:00:00 -2.5 0 Calma 12 Noroeste 0 -- -- 81
2021-01-05 05:00:00 -1.4 8 Noroeste 15 Norte 0 -- -- 82
2021-01-05 04:00:00 1.1 9 Norte 16 Noroeste 0 -- -- 71
2021-01-05 03:00:00 0.4 10 Oeste 14 Oeste 0 -- -- 78
2021-01-05 02:00:00 0.4 9 Noroeste 17 Noroeste 0 -- -- 74
2021-01-05 01:00:00 1.2 11 Noroeste 18 Oeste 0 -- -- 69
2021-01-05 00:00:00 3.9 12 Oeste 20 Oeste 0 -- -- 65
2021-01-04 23:00:00 2.2 6 Noroeste 12 Noroeste 0 -- -- 68
2021-01-04 22:00:00 0.9 6 Noroeste 14 Noroeste 0 -- -- 71
2021-01-04 21:00:00 0.9 9 Noroeste 15 Noroeste 0 -- -- 68
2021-01-04 20:00:00 1.9 8 Noroeste 15 Noroeste 0 -- -- 64
2021-01-04 19:00:00 4.6 5 Noroeste 15 Noroeste 0 -- -- 55
2021-01-04 18:00:00 7.4 8 Oeste 30 Oeste 0 -- -- 44
2021-01-04 17:00:00 10.6 17 Oeste 32 Oeste 0 -- -- 35
2021-01-04 16:00:00 11.5 17 Oeste 34 Noroeste 0 -- -- 35
2021-01-04 15:00:00 11.8 20 Oeste 37 Oeste 0 -- -- 35
2021-01-04 14:00:00 11.5 19 Oeste 37 Oeste 0 -- -- 36
2021-01-04 13:00:00 10.8 19 Oeste 32 Oeste 0 -- -- 41
2021-01-04 12:00:00 9.9 17 Oeste 31 Oeste 0 -- -- 45
2021-01-04 11:00:00 8.1 16 Oeste 27 Oeste 0 -- -- 53
2021-01-04 10:00:00 6 11 Oeste 25 Oeste 0 -- -- 62
2021-01-04 09:00:00 4.2 8 Noroeste 17 Noroeste 0 -- -- 68
2021-01-04 08:00:00 4 14 Oeste 25 Oeste 0 -- -- 65
2021-01-04 07:00:00 4.3 15 Oeste 28 Oeste 0 -- -- 64
2021-01-04 06:00:00 4.4 14 Oeste 24 Oeste 0 -- -- 63
2021-01-04 05:00:00 4.9 14 Oeste 27 Oeste 0 -- -- 59
2021-01-04 04:00:00 4.6 14 Oeste 23 Oeste 0 -- -- 59
2021-01-04 03:00:00 4 5 Oeste 20 Oeste 0 -- -- 61
2021-01-04 02:00:00 4.8 5 Oeste 26 Oeste 0 -- -- 59
2021-01-04 01:00:00 5.6 14 Oeste 26 Oeste 0 -- -- 56
2021-01-04 00:00:00 6.2 17 Oeste 28 Oeste 0 -- -- 53
2021-01-03 23:00:00 6 14 Oeste 25 Oeste 0 -- -- 54
2021-01-03 22:00:00 6 13 Oeste 22 Oeste 0 -- -- 55
2021-01-03 21:00:00 6 3 Nordeste 18 Oeste 0 -- -- 52
2021-01-03 20:00:00 8 12 Oeste 37 Oeste 0 -- -- 45
2021-01-03 19:00:00 8.9 22 Oeste 35 Oeste 0 -- -- 42
2021-01-03 18:00:00 9.3 7 Oeste 23 Noroeste 0 -- -- 41
2021-01-03 17:00:00 11.8 13 Noroeste 30 Noroeste 0 -- -- 36
2021-01-03 16:00:00 12.7 15 Noroeste 31 Oeste 0 -- -- 34
2021-01-03 15:00:00 13.2 15 Noroeste 35 Noroeste 0 -- -- 33
2021-01-03 14:00:00 12.8 20 Oeste 40 Oeste 0 -- -- 32
2021-01-03 13:00:00 11.6 8 Norte 29 Oeste 0 -- -- 33
2021-01-03 12:00:00 10 16 Oeste 31 Oeste 0 -- -- 40
2021-01-03 11:00:00 8.1 18 Oeste 30 Oeste 0 -- -- 43
2021-01-03 10:00:00 4.9 9 Noroeste 15 Noroeste 0 -- -- 49
2021-01-03 09:00:00 -1.5 3 Norte 9 Noroeste 0 -- -- 69
2021-01-03 08:00:00 -2.5 3 Norte 9 Norte 0 -- -- 70
2021-01-03 07:00:00 -1.6 0 Calma 9 Noroeste 0 -- -- 66
2021-01-03 06:00:00 -2.1 3 Oeste 9 Noroeste 0 -- -- 72
2021-01-03 05:00:00 -0.2 3 Norte 9 Oeste 0 -- -- 64
2021-01-03 04:00:00 2.3 2 Nordeste 18 Noroeste 0 -- -- 54
2021-01-03 03:00:00 0.8 5 Noroeste 11 Oeste 0 -- -- 61
2021-01-03 02:00:00 4.2 6 Norte 15 Noroeste 0 -- -- 48
2021-01-03 01:00:00 3.5 4 Oeste 16 Oeste 0 -- -- 52
2021-01-03 00:00:00 3.6 3 Norte 12 Oeste 0 -- -- 53
2021-01-02 23:00:00 6.1 10 Sudoeste 28 Norte 0 -- -- 44
2021-01-02 22:00:00 6.4 13 Oeste 27 Noroeste 0 -- -- 38
2021-01-02 21:00:00 6.6 15 Oeste 30 Oeste 0 -- -- 36
2021-01-02 20:00:00 6.1 12 Oeste 27 Oeste 0 -- -- 39
2021-01-02 19:00:00 6.5 12 Noroeste 26 Noroeste 0 -- -- 40
2021-01-02 18:00:00 7.3 10 Noroeste 34 Noroeste 0 -- -- 42
2021-01-02 17:00:00 9 15 Noroeste 40 Noroeste 0 -- -- 39
2021-01-02 16:00:00 9.6 24 Noroeste 37 Noroeste 0 -- -- 39
2021-01-02 15:00:00 10.2 18 Noroeste 35 Norte 0 -- -- 39
2021-01-02 14:00:00 9.8 19 Norte 36 Noroeste 0 -- -- 38